sensor_id;sensor_type;location;lat;lon;timestamp;P1;durP1;ratioP1;P2;durP2;ratioP2
7402;SDS011;3742;48.770;11.440;2022-12-15T00:02:37;27.10;;;20.20;;
7402;SDS011;3742;48.770;11.440;2022-12-15T00:05:23;22.80;;;17.90;;
7402;SDS011;3742;48.770;11.440;2022-12-15T00:08:16;26.93;;;18.93;;
7402;SDS011;3742;48.770;11.440;2022-12-15T00:11:03;27.03;;;19.10;;
7402;SDS011;3742;48.770;11.440;2022-12-15T00:13:49;24.47;;;18.97;;
7402;SDS011;3742;48.770;11.440;2022-12-15T00:16:35;24.33;;;19.17;;
7402;SDS011;3742;48.770;11.440;2022-12-15T00:19:21;26.27;;;19.07;;
7402;SDS011;3742;48.770;11.440;2022-12-15T00:22:07;26.60;;;20.37;;
7402;SDS011;3742;48.770;11.440;2022-12-15T00:24:53;28.00;;;20.30;;
7402;SDS011;3742;48.770;11.440;2022-12-15T00:27:40;26.03;;;19.87;;
7402;SDS011;3742;48.770;11.440;2022-12-15T00:30:26;26.80;;;19.40;;
7402;SDS011;3742;48.770;11.440;2022-12-15T00:33:16;26.87;;;19.17;;
7402;SDS011;3742;48.770;11.440;2022-12-15T00:36:02;28.93;;;20.70;;
7402;SDS011;3742;48.770;11.440;2022-12-15T00:38:48;25.93;;;19.73;;
7402;SDS011;3742;48.770;11.440;2022-12-15T00:41:17;26.70;;;19.63;;
7402;SDS011;3742;48.770;11.440;2022-12-15T00:43:47;26.83;;;20.30;;
7402;SDS011;3742;48.770;11.440;2022-12-15T00:46:15;25.30;;;18.97;;
7402;SDS011;3742;48.770;11.440;2022-12-15T00:49:01;25.13;;;19.53;;
7402;SDS011;3742;48.770;11.440;2022-12-15T00:51:50;25.70;;;18.53;;
7402;SDS011;3742;48.770;11.440;2022-12-15T00:54:36;26.97;;;20.57;;
7402;SDS011;3742;48.770;11.440;2022-12-15T00:57:23;26.40;;;19.40;;
7402;SDS011;3742;48.770;11.440;2022-12-15T01:00:10;24.50;;;19.30;;
7402;SDS011;3742;48.770;11.440;2022-12-15T01:02:57;26.20;;;18.47;;
7402;SDS011;3742;48.770;11.440;2022-12-15T01:05:44;26.17;;;18.30;;
7402;SDS011;3742;48.770;11.440;2022-12-15T01:08:30;26.13;;;18.93;;
7402;SDS011;3742;48.770;11.440;2022-12-15T01:11:16;26.40;;;19.60;;
7402;SDS011;3742;48.770;11.440;2022-12-15T01:14:02;25.37;;;19.10;;
7402;SDS011;3742;48.770;11.440;2022-12-15T01:16:49;23.93;;;18.57;;
7402;SDS011;3742;48.770;11.440;2022-12-15T01:19:35;24.17;;;19.20;;
7402;SDS011;3742;48.770;11.440;2022-12-15T01:22:21;27.20;;;18.27;;
7402;SDS011;3742;48.770;11.440;2022-12-15T01:24:50;23.47;;;17.87;;
7402;SDS011;3742;48.770;11.440;2022-12-15T01:27:19;25.40;;;18.97;;
7402;SDS011;3742;48.770;11.440;2022-12-15T01:29:47;26.50;;;20.03;;
7402;SDS011;3742;48.770;11.440;2022-12-15T01:32:17;26.50;;;19.93;;
7402;SDS011;3742;48.770;11.440;2022-12-15T01:34:46;25.00;;;18.40;;
7402;SDS011;3742;48.770;11.440;2022-12-15T01:37:15;25.20;;;18.43;;
7402;SDS011;3742;48.770;11.440;2022-12-15T01:39:43;23.87;;;18.00;;
7402;SDS011;3742;48.770;11.440;2022-12-15T01:42:29;24.00;;;16.90;;
7402;SDS011;3742;48.770;11.440;2022-12-15T01:48:06;28.43;;;19.50;;
7402;SDS011;3742;48.770;11.440;2022-12-15T01:50:38;28.30;;;20.23;;
7402;SDS011;3742;48.770;11.440;2022-12-15T01:53:08;27.80;;;20.67;;
7402;SDS011;3742;48.770;11.440;2022-12-15T01:55:38;27.30;;;20.87;;
7402;SDS011;3742;48.770;11.440;2022-12-15T01:58:08;26.80;;;19.17;;
7402;SDS011;3742;48.770;11.440;2022-12-15T02:00:38;25.87;;;18.90;;
7402;SDS011;3742;48.770;11.440;2022-12-15T02:03:08;27.33;;;20.80;;
7402;SDS011;3742;48.770;11.440;2022-12-15T02:05:37;26.30;;;19.63;;
7402;SDS011;3742;48.770;11.440;2022-12-15T02:08:07;29.03;;;21.33;;
7402;SDS011;3742;48.770;11.440;2022-12-15T02:10:40;27.20;;;19.90;;
7402;SDS011;3742;48.770;11.440;2022-12-15T02:13:14;30.23;;;20.87;;
7402;SDS011;3742;48.770;11.440;2022-12-15T02:15:47;28.43;;;21.50;;
7402;SDS011;3742;48.770;11.440;2022-12-15T02:18:19;28.50;;;20.57;;
7402;SDS011;3742;48.770;11.440;2022-12-15T02:20:51;25.67;;;20.27;;
7402;SDS011;3742;48.770;11.440;2022-12-15T02:23:37;27.17;;;21.53;;
7402;SDS011;3742;48.770;11.440;2022-12-15T02:29:32;31.53;;;20.53;;
7402;SDS011;3742;48.770;11.440;2022-12-15T02:32:19;26.83;;;18.23;;
7402;SDS011;3742;48.770;11.440;2022-12-15T02:34:51;29.17;;;19.23;;
7402;SDS011;3742;48.770;11.440;2022-12-15T02:37:23;28.77;;;19.53;;
7402;SDS011;3742;48.770;11.440;2022-12-15T02:39:54;27.97;;;20.73;;
7402;SDS011;3742;48.770;11.440;2022-12-15T02:42:23;26.70;;;19.83;;
7402;SDS011;3742;48.770;11.440;2022-12-15T02:44:52;25.73;;;18.57;;
7402;SDS011;3742;48.770;11.440;2022-12-15T02:47:28;24.70;;;18.17;;
7402;SDS011;3742;48.770;11.440;2022-12-15T02:52:51;25.70;;;19.63;;
7402;SDS011;3742;48.770;11.440;2022-12-15T02:55:27;28.97;;;20.40;;
7402;SDS011;3742;48.770;11.440;2022-12-15T02:58:03;25.67;;;18.67;;
7402;SDS011;3742;48.770;11.440;2022-12-15T03:00:35;25.63;;;18.67;;
7402;SDS011;3742;48.770;11.440;2022-12-15T03:03:07;25.57;;;19.93;;
7402;SDS011;3742;48.770;11.440;2022-12-15T03:05:36;25.53;;;20.10;;
7402;SDS011;3742;48.770;11.440;2022-12-15T03:08:05;26.83;;;19.80;;
7402;SDS011;3742;48.770;11.440;2022-12-15T03:10:35;27.57;;;19.80;;
7402;SDS011;3742;48.770;11.440;2022-12-15T03:13:03;26.30;;;19.43;;
7402;SDS011;3742;48.770;11.440;2022-12-15T03:15:32;26.73;;;19.17;;
7402;SDS011;3742;48.770;11.440;2022-12-15T03:18:01;26.87;;;19.33;;
7402;SDS011;3742;48.770;11.440;2022-12-15T03:20:32;28.10;;;20.50;;
7402;SDS011;3742;48.770;11.440;2022-12-15T03:23:00;24.87;;;18.57;;
7402;SDS011;3742;48.770;11.440;2022-12-15T03:25:29;27.67;;;20.47;;
7402;SDS011;3742;48.770;11.440;2022-12-15T03:27:58;30.30;;;20.10;;
7402;SDS011;3742;48.770;11.440;2022-12-15T03:30:26;30.73;;;21.20;;
7402;SDS011;3742;48.770;11.440;2022-12-15T03:32:55;29.80;;;21.17;;
7402;SDS011;3742;48.770;11.440;2022-12-15T03:35:23;31.73;;;22.30;;
7402;SDS011;3742;48.770;11.440;2022-12-15T03:37:53;29.23;;;22.03;;
7402;SDS011;3742;48.770;11.440;2022-12-15T03:40:22;27.60;;;20.40;;
7402;SDS011;3742;48.770;11.440;2022-12-15T03:42:50;30.77;;;21.10;;
7402;SDS011;3742;48.770;11.440;2022-12-15T03:45:20;30.77;;;21.73;;
7402;SDS011;3742;48.770;11.440;2022-12-15T03:47:50;28.70;;;21.43;;
7402;SDS011;3742;48.770;11.440;2022-12-15T03:50:19;29.73;;;20.77;;
7402;SDS011;3742;48.770;11.440;2022-12-15T03:52:49;31.07;;;21.27;;
7402;SDS011;3742;48.770;11.440;2022-12-15T03:55:20;32.30;;;21.67;;
7402;SDS011;3742;48.770;11.440;2022-12-15T03:57:48;28.47;;;20.97;;
7402;SDS011;3742;48.770;11.440;2022-12-15T04:00:18;32.00;;;22.27;;
7402;SDS011;3742;48.770;11.440;2022-12-15T04:02:49;30.87;;;22.03;;
7402;SDS011;3742;48.770;11.440;2022-12-15T04:05:19;30.00;;;21.23;;
7402;SDS011;3742;48.770;11.440;2022-12-15T04:07:48;31.30;;;21.07;;
7402;SDS011;3742;48.770;11.440;2022-12-15T04:10:17;30.40;;;21.40;;
7402;SDS011;3742;48.770;11.440;2022-12-15T04:12:47;29.40;;;21.63;;
7402;SDS011;3742;48.770;11.440;2022-12-15T04:15:15;34.20;;;22.37;;
7402;SDS011;3742;48.770;11.440;2022-12-15T04:17:44;30.07;;;21.73;;
7402;SDS011;3742;48.770;11.440;2022-12-15T04:20:12;30.23;;;21.73;;
7402;SDS011;3742;48.770;11.440;2022-12-15T04:22:42;27.97;;;21.20;;
7402;SDS011;3742;48.770;11.440;2022-12-15T04:25:12;30.53;;;22.97;;
7402;SDS011;3742;48.770;11.440;2022-12-15T04:28:00;31.33;;;21.10;;
7402;SDS011;3742;48.770;11.440;2022-12-15T04:30:48;29.43;;;21.57;;
7402;SDS011;3742;48.770;11.440;2022-12-15T04:33:36;31.70;;;22.37;;
7402;SDS011;3742;48.770;11.440;2022-12-15T04:36:25;31.00;;;21.70;;
7402;SDS011;3742;48.770;11.440;2022-12-15T04:39:11;29.60;;;21.13;;
7402;SDS011;3742;48.770;11.440;2022-12-15T04:41:57;32.00;;;21.83;;
7402;SDS011;3742;48.770;11.440;2022-12-15T04:44:47;33.80;;;23.23;;
7402;SDS011;3742;48.770;11.440;2022-12-15T04:47:33;34.97;;;22.60;;
7402;SDS011;3742;48.770;11.440;2022-12-15T04:50:19;32.83;;;22.33;;
7402;SDS011;3742;48.770;11.440;2022-12-15T04:53:06;32.03;;;21.40;;
7402;SDS011;3742;48.770;11.440;2022-12-15T04:55:52;31.57;;;22.03;;
7402;SDS011;3742;48.770;11.440;2022-12-15T04:58:44;35.27;;;22.90;;
7402;SDS011;3742;48.770;11.440;2022-12-15T05:01:32;29.37;;;22.40;;
7402;SDS011;3742;48.770;11.440;2022-12-15T05:04:18;34.50;;;23.23;;
7402;SDS011;3742;48.770;11.440;2022-12-15T05:07:04;33.23;;;22.27;;
7402;SDS011;3742;48.770;11.440;2022-12-15T05:09:50;32.53;;;22.97;;
7402;SDS011;3742;48.770;11.440;2022-12-15T05:12:41;33.77;;;22.73;;
7402;SDS011;3742;48.770;11.440;2022-12-15T05:15:27;37.03;;;23.50;;
7402;SDS011;3742;48.770;11.440;2022-12-15T05:18:14;36.10;;;22.97;;
7402;SDS011;3742;48.770;11.440;2022-12-15T05:21:00;31.60;;;22.07;;
7402;SDS011;3742;48.770;11.440;2022-12-15T05:23:46;33.60;;;22.07;;
7402;SDS011;3742;48.770;11.440;2022-12-15T05:26:32;34.20;;;22.03;;
7402;SDS011;3742;48.770;11.440;2022-12-15T05:29:19;36.40;;;24.33;;
7402;SDS011;3742;48.770;11.440;2022-12-15T05:32:05;37.40;;;24.37;;
7402;SDS011;3742;48.770;11.440;2022-12-15T05:34:35;33.83;;;22.57;;
7402;SDS011;3742;48.770;11.440;2022-12-15T05:37:04;38.63;;;25.30;;
7402;SDS011;3742;48.770;11.440;2022-12-15T05:39:33;36.20;;;23.90;;
7402;SDS011;3742;48.770;11.440;2022-12-15T05:42:02;37.47;;;24.33;;
7402;SDS011;3742;48.770;11.440;2022-12-15T05:44:31;34.30;;;24.07;;
7402;SDS011;3742;48.770;11.440;2022-12-15T05:47:00;33.67;;;24.17;;
7402;SDS011;3742;48.770;11.440;2022-12-15T05:49:28;36.93;;;25.03;;
7402;SDS011;3742;48.770;11.440;2022-12-15T05:51:58;36.70;;;24.43;;
7402;SDS011;3742;48.770;11.440;2022-12-15T05:54:27;33.37;;;24.33;;
7402;SDS011;3742;48.770;11.440;2022-12-15T05:56:55;37.87;;;25.07;;
7402;SDS011;3742;48.770;11.440;2022-12-15T05:59:24;35.57;;;25.10;;
7402;SDS011;3742;48.770;11.440;2022-12-15T06:01:52;36.60;;;28.90;;
7402;SDS011;3742;48.770;11.440;2022-12-15T06:04:21;37.63;;;24.73;;
7402;SDS011;3742;48.770;11.440;2022-12-15T06:06:50;36.57;;;24.90;;
7402;SDS011;3742;48.770;11.440;2022-12-15T06:09:20;36.93;;;23.80;;
7402;SDS011;3742;48.770;11.440;2022-12-15T06:11:49;36.90;;;23.20;;
7402;SDS011;3742;48.770;11.440;2022-12-15T06:14:18;33.07;;;23.03;;
7402;SDS011;3742;48.770;11.440;2022-12-15T06:16:47;42.90;;;25.20;;
7402;SDS011;3742;48.770;11.440;2022-12-15T06:19:18;36.23;;;23.83;;
7402;SDS011;3742;48.770;11.440;2022-12-15T06:21:47;37.23;;;23.87;;
7402;SDS011;3742;48.770;11.440;2022-12-15T06:24:16;39.33;;;25.00;;
7402;SDS011;3742;48.770;11.440;2022-12-15T06:26:45;36.07;;;24.73;;
7402;SDS011;3742;48.770;11.440;2022-12-15T06:29:16;36.43;;;23.33;;
7402;SDS011;3742;48.770;11.440;2022-12-15T06:31:45;38.60;;;24.73;;
7402;SDS011;3742;48.770;11.440;2022-12-15T06:34:15;36.90;;;24.13;;
7402;SDS011;3742;48.770;11.440;2022-12-15T06:36:44;37.83;;;24.20;;
7402;SDS011;3742;48.770;11.440;2022-12-15T06:39:13;36.77;;;25.37;;
7402;SDS011;3742;48.770;11.440;2022-12-15T06:41:42;34.10;;;23.47;;
7402;SDS011;3742;48.770;11.440;2022-12-15T06:44:13;37.17;;;24.20;;
7402;SDS011;3742;48.770;11.440;2022-12-15T06:46:42;37.00;;;24.97;;
7402;SDS011;3742;48.770;11.440;2022-12-15T06:49:12;39.17;;;24.67;;
7402;SDS011;3742;48.770;11.440;2022-12-15T06:51:41;37.00;;;24.40;;
7402;SDS011;3742;48.770;11.440;2022-12-15T06:54:11;36.10;;;24.07;;
7402;SDS011;3742;48.770;11.440;2022-12-15T06:56:39;39.43;;;25.17;;
7402;SDS011;3742;48.770;11.440;2022-12-15T06:59:09;37.73;;;25.00;;
7402;SDS011;3742;48.770;11.440;2022-12-15T07:01:39;37.53;;;25.30;;
7402;SDS011;3742;48.770;11.440;2022-12-15T07:04:09;35.90;;;25.17;;
7402;SDS011;3742;48.770;11.440;2022-12-15T07:06:38;36.10;;;24.40;;
7402;SDS011;3742;48.770;11.440;2022-12-15T07:09:11;37.33;;;24.10;;
7402;SDS011;3742;48.770;11.440;2022-12-15T07:11:45;40.13;;;25.80;;
7402;SDS011;3742;48.770;11.440;2022-12-15T07:14:19;34.70;;;23.70;;
7402;SDS011;3742;48.770;11.440;2022-12-15T07:16:51;39.73;;;26.47;;
7402;SDS011;3742;48.770;11.440;2022-12-15T07:19:22;39.50;;;25.70;;
7402;SDS011;3742;48.770;11.440;2022-12-15T07:21:53;40.80;;;25.40;;
7402;SDS011;3742;48.770;11.440;2022-12-15T07:24:29;42.13;;;26.30;;
7402;SDS011;3742;48.770;11.440;2022-12-15T07:27:00;38.10;;;24.77;;
7402;SDS011;3742;48.770;11.440;2022-12-15T07:29:34;37.37;;;25.57;;
7402;SDS011;3742;48.770;11.440;2022-12-15T07:32:06;40.73;;;26.53;;
7402;SDS011;3742;48.770;11.440;2022-12-15T07:34:36;36.83;;;25.50;;
7402;SDS011;3742;48.770;11.440;2022-12-15T07:37:06;37.70;;;25.73;;
7402;SDS011;3742;48.770;11.440;2022-12-15T07:39:38;40.33;;;25.50;;
7402;SDS011;3742;48.770;11.440;2022-12-15T07:42:08;37.70;;;24.40;;
7402;SDS011;3742;48.770;11.440;2022-12-15T07:44:37;38.80;;;24.40;;
7402;SDS011;3742;48.770;11.440;2022-12-15T07:47:07;38.60;;;25.43;;
7402;SDS011;3742;48.770;11.440;2022-12-15T07:49:36;42.47;;;24.83;;
7402;SDS011;3742;48.770;11.440;2022-12-15T07:52:05;40.23;;;25.70;;
7402;SDS011;3742;48.770;11.440;2022-12-15T07:54:33;41.63;;;25.83;;
7402;SDS011;3742;48.770;11.440;2022-12-15T07:57:02;39.37;;;24.33;;
7402;SDS011;3742;48.770;11.440;2022-12-15T07:59:33;41.20;;;24.67;;
7402;SDS011;3742;48.770;11.440;2022-12-15T08:02:02;35.60;;;24.67;;
7402;SDS011;3742;48.770;11.440;2022-12-15T08:04:33;41.07;;;25.17;;
7402;SDS011;3742;48.770;11.440;2022-12-15T08:07:02;35.10;;;23.93;;
7402;SDS011;3742;48.770;11.440;2022-12-15T08:09:30;37.03;;;25.43;;
7402;SDS011;3742;48.770;11.440;2022-12-15T08:11:59;37.13;;;23.97;;
7402;SDS011;3742;48.770;11.440;2022-12-15T08:14:28;37.53;;;24.20;;
7402;SDS011;3742;48.770;11.440;2022-12-15T08:16:58;37.40;;;25.30;;
7402;SDS011;3742;48.770;11.440;2022-12-15T08:19:27;36.03;;;24.33;;
7402;SDS011;3742;48.770;11.440;2022-12-15T08:21:58;44.73;;;27.27;;
7402;SDS011;3742;48.770;11.440;2022-12-15T08:24:26;43.47;;;27.67;;
7402;SDS011;3742;48.770;11.440;2022-12-15T08:26:55;38.03;;;26.50;;
7402;SDS011;3742;48.770;11.440;2022-12-15T08:29:24;38.40;;;25.90;;
7402;SDS011;3742;48.770;11.440;2022-12-15T08:32:13;39.17;;;26.37;;
7402;SDS011;3742;48.770;11.440;2022-12-15T08:34:42;37.23;;;24.87;;
7402;SDS011;3742;48.770;11.440;2022-12-15T08:37:15;34.47;;;23.50;;
7402;SDS011;3742;48.770;11.440;2022-12-15T08:39:44;38.63;;;26.03;;
7402;SDS011;3742;48.770;11.440;2022-12-15T08:42:14;40.30;;;25.47;;
7402;SDS011;3742;48.770;11.440;2022-12-15T08:44:43;41.17;;;25.73;;
7402;SDS011;3742;48.770;11.440;2022-12-15T08:47:15;41.00;;;25.07;;
7402;SDS011;3742;48.770;11.440;2022-12-15T08:49:44;37.30;;;25.43;;
7402;SDS011;3742;48.770;11.440;2022-12-15T08:52:16;38.90;;;25.53;;
7402;SDS011;3742;48.770;11.440;2022-12-15T08:54:44;40.47;;;25.80;;
7402;SDS011;3742;48.770;11.440;2022-12-15T08:57:13;35.83;;;25.67;;
7402;SDS011;3742;48.770;11.440;2022-12-15T08:59:42;40.80;;;26.50;;
7402;SDS011;3742;48.770;11.440;2022-12-15T09:02:11;36.57;;;24.37;;
7402;SDS011;3742;48.770;11.440;2022-12-15T09:04:40;35.70;;;23.63;;
7402;SDS011;3742;48.770;11.440;2022-12-15T09:07:10;37.43;;;25.20;;
7402;SDS011;3742;48.770;11.440;2022-12-15T09:09:41;34.27;;;23.87;;
7402;SDS011;3742;48.770;11.440;2022-12-15T09:12:10;41.73;;;25.47;;
7402;SDS011;3742;48.770;11.440;2022-12-15T09:14:40;38.80;;;24.43;;
7402;SDS011;3742;48.770;11.440;2022-12-15T09:17:09;32.40;;;23.10;;
7402;SDS011;3742;48.770;11.440;2022-12-15T09:19:38;36.97;;;24.50;;
7402;SDS011;3742;48.770;11.440;2022-12-15T09:22:07;37.03;;;24.57;;
7402;SDS011;3742;48.770;11.440;2022-12-15T09:24:36;39.93;;;25.60;;
7402;SDS011;3742;48.770;11.440;2022-12-15T09:27:06;33.77;;;19.10;;
7402;SDS011;3742;48.770;11.440;2022-12-15T09:29:35;35.10;;;25.03;;
7402;SDS011;3742;48.770;11.440;2022-12-15T09:32:03;36.17;;;25.30;;
7402;SDS011;3742;48.770;11.440;2022-12-15T09:34:40;36.60;;;24.17;;
7402;SDS011;3742;48.770;11.440;2022-12-15T09:37:09;35.47;;;24.20;;
7402;SDS011;3742;48.770;11.440;2022-12-15T09:39:37;34.00;;;22.63;;
7402;SDS011;3742;48.770;11.440;2022-12-15T09:42:18;34.17;;;22.93;;
7402;SDS011;3742;48.770;11.440;2022-12-15T09:44:51;32.47;;;22.03;;
7402;SDS011;3742;48.770;11.440;2022-12-15T09:47:27;34.40;;;23.40;;
7402;SDS011;3742;48.770;11.440;2022-12-15T09:49:59;33.73;;;23.27;;
7402;SDS011;3742;48.770;11.440;2022-12-15T09:52:30;37.97;;;24.03;;
7402;SDS011;3742;48.770;11.440;2022-12-15T09:55:02;35.80;;;23.30;;
7402;SDS011;3742;48.770;11.440;2022-12-15T09:57:47;33.87;;;23.13;;
7402;SDS011;3742;48.770;11.440;2022-12-15T10:00:21;32.97;;;21.90;;
7402;SDS011;3742;48.770;11.440;2022-12-15T10:05:56;32.63;;;21.93;;
7402;SDS011;3742;48.770;11.440;2022-12-15T10:08:44;33.10;;;22.77;;
7402;SDS011;3742;48.770;11.440;2022-12-15T10:11:25;34.40;;;23.10;;
7402;SDS011;3742;48.770;11.440;2022-12-15T10:14:05;29.07;;;19.90;;
7402;SDS011;3742;48.770;11.440;2022-12-15T10:16:42;31.57;;;22.00;;
7402;SDS011;3742;48.770;11.440;2022-12-15T10:19:20;27.37;;;19.43;;
7402;SDS011;3742;48.770;11.440;2022-12-15T10:21:54;26.33;;;19.23;;
7402;SDS011;3742;48.770;11.440;2022-12-15T10:24:23;30.80;;;21.30;;
7402;SDS011;3742;48.770;11.440;2022-12-15T10:27:32;28.83;;;20.03;;
7402;SDS011;3742;48.770;11.440;2022-12-15T10:30:10;31.40;;;21.57;;
7402;SDS011;3742;48.770;11.440;2022-12-15T10:32:43;33.03;;;22.23;;
7402;SDS011;3742;48.770;11.440;2022-12-15T10:35:20;32.77;;;21.43;;
7402;SDS011;3742;48.770;11.440;2022-12-15T10:37:52;30.27;;;21.30;;
7402;SDS011;3742;48.770;11.440;2022-12-15T10:40:40;29.57;;;21.27;;
7402;SDS011;3742;48.770;11.440;2022-12-15T10:43:23;35.87;;;20.90;;
7402;SDS011;3742;48.770;11.440;2022-12-15T10:46:05;32.33;;;23.27;;
7402;SDS011;3742;48.770;11.440;2022-12-15T10:48:41;33.27;;;23.33;;
7402;SDS011;3742;48.770;11.440;2022-12-15T10:51:19;30.90;;;22.83;;
7402;SDS011;3742;48.770;11.440;2022-12-15T10:53:49;28.17;;;21.77;;
7402;SDS011;3742;48.770;11.440;2022-12-15T10:56:22;33.37;;;22.20;;
7402;SDS011;3742;48.770;11.440;2022-12-15T10:59:00;32.67;;;22.63;;
7402;SDS011;3742;48.770;11.440;2022-12-15T11:01:32;36.87;;;23.67;;
7402;SDS011;3742;48.770;11.440;2022-12-15T11:04:02;35.83;;;22.30;;
7402;SDS011;3742;48.770;11.440;2022-12-15T11:06:31;34.13;;;23.03;;
7402;SDS011;3742;48.770;11.440;2022-12-15T11:09:07;33.17;;;22.90;;
7402;SDS011;3742;48.770;11.440;2022-12-15T11:11:44;29.93;;;21.77;;
7402;SDS011;3742;48.770;11.440;2022-12-15T11:14:41;31.27;;;21.53;;
7402;SDS011;3742;48.770;11.440;2022-12-15T11:17:15;32.97;;;22.83;;
7402;SDS011;3742;48.770;11.440;2022-12-15T11:19:47;32.83;;;21.73;;
7402;SDS011;3742;48.770;11.440;2022-12-15T11:22:28;33.90;;;21.77;;
7402;SDS011;3742;48.770;11.440;2022-12-15T11:25:02;31.17;;;22.63;;
7402;SDS011;3742;48.770;11.440;2022-12-15T11:27:34;33.97;;;26.23;;
7402;SDS011;3742;48.770;11.440;2022-12-15T11:30:09;31.47;;;22.50;;
7402;SDS011;3742;48.770;11.440;2022-12-15T11:32:42;31.07;;;22.07;;
7402;SDS011;3742;48.770;11.440;2022-12-15T11:35:15;32.57;;;22.57;;
7402;SDS011;3742;48.770;11.440;2022-12-15T11:37:47;33.13;;;22.87;;
7402;SDS011;3742;48.770;11.440;2022-12-15T11:40:32;36.10;;;23.80;;
7402;SDS011;3742;48.770;11.440;2022-12-15T11:43:07;35.83;;;23.50;;
7402;SDS011;3742;48.770;11.440;2022-12-15T11:45:46;27.67;;;20.03;;
7402;SDS011;3742;48.770;11.440;2022-12-15T11:48:25;35.27;;;24.60;;
7402;SDS011;3742;48.770;11.440;2022-12-15T11:50:57;29.27;;;19.77;;
7402;SDS011;3742;48.770;11.440;2022-12-15T11:53:35;31.20;;;21.33;;
7402;SDS011;3742;48.770;11.440;2022-12-15T11:56:16;34.77;;;24.27;;
7402;SDS011;3742;48.770;11.440;2022-12-15T11:58:58;34.37;;;23.87;;
7402;SDS011;3742;48.770;11.440;2022-12-15T12:01:57;35.20;;;24.40;;
7402;SDS011;3742;48.770;11.440;2022-12-15T12:04:37;31.33;;;22.30;;
7402;SDS011;3742;48.770;11.440;2022-12-15T12:07:14;30.97;;;22.53;;
7402;SDS011;3742;48.770;11.440;2022-12-15T12:09:52;31.83;;;22.37;;
7402;SDS011;3742;48.770;11.440;2022-12-15T12:12:32;38.13;;;22.93;;
7402;SDS011;3742;48.770;11.440;2022-12-15T12:15:11;30.03;;;22.20;;
7402;SDS011;3742;48.770;11.440;2022-12-15T12:17:48;34.07;;;22.93;;
7402;SDS011;3742;48.770;11.440;2022-12-15T12:20:21;30.67;;;22.30;;
7402;SDS011;3742;48.770;11.440;2022-12-15T12:22:54;33.90;;;23.67;;
7402;SDS011;3742;48.770;11.440;2022-12-15T12:25:28;32.90;;;22.47;;
7402;SDS011;3742;48.770;11.440;2022-12-15T12:28:01;29.93;;;21.60;;
7402;SDS011;3742;48.770;11.440;2022-12-15T12:30:32;31.53;;;22.43;;
7402;SDS011;3742;48.770;11.440;2022-12-15T12:33:07;34.23;;;23.27;;
7402;SDS011;3742;48.770;11.440;2022-12-15T12:35:41;30.97;;;21.83;;
7402;SDS011;3742;48.770;11.440;2022-12-15T12:38:14;32.27;;;22.47;;
7402;SDS011;3742;48.770;11.440;2022-12-15T12:40:51;36.80;;;24.27;;
7402;SDS011;3742;48.770;11.440;2022-12-15T12:43:25;31.43;;;22.80;;
7402;SDS011;3742;48.770;11.440;2022-12-15T12:46:01;34.60;;;23.80;;
7402;SDS011;3742;48.770;11.440;2022-12-15T12:48:32;29.07;;;21.97;;
7402;SDS011;3742;48.770;11.440;2022-12-15T12:51:11;30.37;;;21.50;;
7402;SDS011;3742;48.770;11.440;2022-12-15T12:53:46;31.90;;;22.70;;
7402;SDS011;3742;48.770;11.440;2022-12-15T12:56:27;32.40;;;23.27;;
7402;SDS011;3742;48.770;11.440;2022-12-15T12:58:57;30.53;;;23.03;;
7402;SDS011;3742;48.770;11.440;2022-12-15T13:01:26;31.40;;;22.20;;
7402;SDS011;3742;48.770;11.440;2022-12-15T13:04:09;30.67;;;21.90;;
7402;SDS011;3742;48.770;11.440;2022-12-15T13:06:56;29.37;;;22.00;;
7402;SDS011;3742;48.770;11.440;2022-12-15T13:09:35;31.70;;;22.03;;
7402;SDS011;3742;48.770;11.440;2022-12-15T13:15:32;36.53;;;22.03;;
7402;SDS011;3742;48.770;11.440;2022-12-15T13:18:10;28.67;;;20.07;;
7402;SDS011;3742;48.770;11.440;2022-12-15T13:20:41;30.53;;;21.10;;
7402;SDS011;3742;48.770;11.440;2022-12-15T13:23:35;32.93;;;22.17;;
7402;SDS011;3742;48.770;11.440;2022-12-15T13:26:11;33.33;;;23.13;;
7402;SDS011;3742;48.770;11.440;2022-12-15T13:28:42;29.40;;;22.10;;
7402;SDS011;3742;48.770;11.440;2022-12-15T13:31:23;34.63;;;22.60;;
7402;SDS011;3742;48.770;11.440;2022-12-15T13:36:42;32.50;;;22.57;;
7402;SDS011;3742;48.770;11.440;2022-12-15T13:42:24;34.93;;;23.87;;
7402;SDS011;3742;48.770;11.440;2022-12-15T13:48:20;33.47;;;24.00;;
7402;SDS011;3742;48.770;11.440;2022-12-15T13:50:55;31.60;;;23.20;;
7402;SDS011;3742;48.770;11.440;2022-12-15T13:53:30;32.80;;;22.80;;
7402;SDS011;3742;48.770;11.440;2022-12-15T13:58:56;30.53;;;22.27;;
7402;SDS011;3742;48.770;11.440;2022-12-15T14:01:28;31.33;;;22.40;;
7402;SDS011;3742;48.770;11.440;2022-12-15T14:04:03;34.67;;;22.90;;
7402;SDS011;3742;48.770;11.440;2022-12-15T14:06:35;30.77;;;22.57;;
7402;SDS011;3742;48.770;11.440;2022-12-15T14:09:05;31.17;;;22.30;;
7402;SDS011;3742;48.770;11.440;2022-12-15T14:11:38;31.67;;;22.90;;
7402;SDS011;3742;48.770;11.440;2022-12-15T14:14:24;32.63;;;23.43;;
7402;SDS011;3742;48.770;11.440;2022-12-15T14:16:54;32.70;;;22.10;;
7402;SDS011;3742;48.770;11.440;2022-12-15T14:19:25;35.50;;;24.33;;
7402;SDS011;3742;48.770;11.440;2022-12-15T14:22:02;34.63;;;22.93;;
7402;SDS011;3742;48.770;11.440;2022-12-15T14:24:32;29.13;;;17.67;;
7402;SDS011;3742;48.770;11.440;2022-12-15T14:27:07;26.63;;;16.93;;
7402;SDS011;3742;48.770;11.440;2022-12-15T14:29:36;30.70;;;18.53;;
7402;SDS011;3742;48.770;11.440;2022-12-15T14:32:04;25.23;;;16.57;;
7402;SDS011;3742;48.770;11.440;2022-12-15T14:34:34;29.50;;;21.43;;
7402;SDS011;3742;48.770;11.440;2022-12-15T14:37:06;33.03;;;24.77;;
7402;SDS011;3742;48.770;11.440;2022-12-15T14:39:36;36.07;;;25.60;;
7402;SDS011;3742;48.770;11.440;2022-12-15T14:42:11;45.27;;;29.47;;
7402;SDS011;3742;48.770;11.440;2022-12-15T14:44:43;36.30;;;26.90;;
7402;SDS011;3742;48.770;11.440;2022-12-15T14:47:18;36.60;;;25.87;;
7402;SDS011;3742;48.770;11.440;2022-12-15T14:49:48;45.27;;;29.27;;
7402;SDS011;3742;48.770;11.440;2022-12-15T14:52:21;40.30;;;30.37;;
7402;SDS011;3742;48.770;11.440;2022-12-15T14:54:54;47.87;;;35.57;;
7402;SDS011;3742;48.770;11.440;2022-12-15T14:57:26;37.80;;;26.50;;
7402;SDS011;3742;48.770;11.440;2022-12-15T14:59:55;40.57;;;28.77;;
7402;SDS011;3742;48.770;11.440;2022-12-15T15:02:24;35.33;;;26.20;;
7402;SDS011;3742;48.770;11.440;2022-12-15T15:04:55;34.63;;;25.70;;
7402;SDS011;3742;48.770;11.440;2022-12-15T15:07:29;31.80;;;22.53;;
7402;SDS011;3742;48.770;11.440;2022-12-15T15:09:58;33.17;;;23.97;;
7402;SDS011;3742;48.770;11.440;2022-12-15T15:12:38;32.63;;;25.17;;
7402;SDS011;3742;48.770;11.440;2022-12-15T15:15:12;31.87;;;24.03;;
7402;SDS011;3742;48.770;11.440;2022-12-15T15:17:43;37.07;;;25.40;;
7402;SDS011;3742;48.770;11.440;2022-12-15T15:20:16;36.80;;;27.63;;
7402;SDS011;3742;48.770;11.440;2022-12-15T15:23:01;38.87;;;27.77;;
7402;SDS011;3742;48.770;11.440;2022-12-15T15:25:34;37.30;;;25.97;;
7402;SDS011;3742;48.770;11.440;2022-12-15T15:28:17;34.70;;;25.50;;
7402;SDS011;3742;48.770;11.440;2022-12-15T15:30:49;39.23;;;27.07;;
7402;SDS011;3742;48.770;11.440;2022-12-15T15:33:22;40.10;;;27.90;;
7402;SDS011;3742;48.770;11.440;2022-12-15T15:35:52;36.57;;;26.90;;
7402;SDS011;3742;48.770;11.440;2022-12-15T15:38:23;37.07;;;25.77;;
7402;SDS011;3742;48.770;11.440;2022-12-15T15:40:53;45.03;;;33.87;;
7402;SDS011;3742;48.770;11.440;2022-12-15T15:43:25;66.87;;;42.63;;
7402;SDS011;3742;48.770;11.440;2022-12-15T15:45:57;64.13;;;41.83;;